Praia De Monte Gordo — CURJ4 — position and weather

sailwx.info

Track history (hours):
 
Tides and Currents Weather Stations Pressure Air Temp Water Temp Dewpoint Dewpoint Depression Visibility Wind Speed Wind Dir Waves Ship Positions

Praia De Monte Gordo

Last reported at 2017-Nov-12 21:10 UTC. Time now 2017-Nov-18 01:16 UTC.
Position N 36°59' W 008°13'.

Length 13 m.

Type: Fishing. MMSI: 263433000.

Date/timePositionNaut miles runAvg speedWind from/ knotsBaromVisibWave heightAir tempDewpointWater temp
2017-Nov-12 21:10N 36°59' W 008°13'0 2.5
2017-Nov-12 20:59N 36°59' W 008°13'1 2.5
2017-Nov-12 20:29N 36°59' W 008°15'2 5.1
2017-Nov-12 20:01N 36°58' W 008°18'4 8.6
2017-Nov-12 19:31N 36°59' W 008°23'4 8.8
2017-Nov-12 19:00N 36°59' W 008°29'4 7.8
2017-Nov-12 18:30N 36°59' W 008°33'5 8.9
2017-Nov-12 18:00N 36°58' W 008°39'4 0.3
2017-Nov-12 04:52N 36°58' W 008°45'3 1.6
2017-Nov-12 03:13N 36°57' W 008°48'1 2.6
2017-Nov-12 02:59N 36°56' W 008°48'3 1.3
2017-Nov-12 00:20N 36°58' W 008°44'2 1.8
2017-Nov-11 22:58N 36°58' W 008°47'1 2.4
2017-Nov-11 22:29N 36°57' W 008°48'2 2.6
2017-Nov-11 21:54N 36°56' W 008°50'1 2.4
2017-Nov-11 21:29N 36°55' W 008°49'1 2.5
2017-Nov-11 21:00N 36°56' W 008°48'2 2.4
2017-Nov-11 20:20N 36°57' W 008°46'1 2.7
2017-Nov-11 19:57N 36°57' W 008°45'0 0.3
2017-Nov-11 19:28N 36°57' W 008°45'1 0.3
2017-Nov-11 15:17N 36°58' W 008°45'1 3.4
2017-Nov-11 15:00N 36°58' W 008°44'1 0.1
2017-Nov-11 10:37N 36°58' W 008°43'1 8.8
2017-Nov-11 10:30N 36°58' W 008°42'4 8.7
2017-Nov-11 10:00N 36°58' W 008°37'4 8.6
2017-Nov-11 09:30N 36°58' W 008°31'4 8.6
2017-Nov-11 09:00N 36°57' W 008°26'6 8.4
2017-Nov-11 08:16N 36°57' W 008°18'3 8.3
2017-Nov-11 07:57N 36°56' W 008°15'  
2017-Nov-08 19:23N 36°59' W 008°12'1 2.5
2017-Nov-08 18:57N 36°59' W 008°13'1 2.5
2017-Nov-08 18:30N 36°59' W 008°15'1 2.0
2017-Nov-08 18:00N 36°59' W 008°16'1 1.5
2017-Nov-08 17:30N 36°59' W 008°15'1 2.5
2017-Nov-08 17:00N 36°59' W 008°13'1 2.5
2017-Nov-08 16:30N 36°59' W 008°12'1 2.3
2017-Nov-08 15:56N 36°58' W 008°11'2 0.3
2017-Nov-08 07:45N 36°59' W 008°13'1 2.4
2017-Nov-08 07:30N 36°59' W 008°13'1 2.4
2017-Nov-08 06:53N 36°59' W 008°11'1 0.2
2017-Nov-08 00:19N 36°59' W 008°12'1 2.5
2017-Nov-07 23:59N 36°59' W 008°13'1 2.5
2017-Nov-07 23:30N 36°59' W 008°14'1 1.6
2017-Nov-07 23:00N 36°58' W 008°15'1 2.3
2017-Nov-07 22:30N 36°59' W 008°14'1 2.5
2017-Nov-07 22:00N 36°59' W 008°13'1 2.3
2017-Nov-07 21:21N 36°59' W 008°11'1 0.1
2017-Nov-07 08:41N 36°58' W 008°10'2 0.3
2017-Nov-07 02:25N 36°59' W 008°12'1 2.5
2017-Nov-07 01:50N 36°59' W 008°14'1 2.5
2017-Nov-07 01:30N 36°59' W 008°15'1 1.3
2017-Nov-07 01:00N 36°58' W 008°16'1 2.6
2017-Nov-07 00:30N 36°59' W 008°14'1 2.6
2017-Nov-07 00:00N 36°59' W 008°13'1 2.5
2017-Nov-06 23:30N 36°58' W 008°11'  
Track history (hours):
 
Tides and Currents Weather Stations Pressure Air Temp Water Temp Dewpoint Dewpoint Depression Visibility Wind Speed Wind Dir Waves Ship Positions

Praia De Monte Gordo

Last reported at 2017-Nov-12 21:10 UTC. Time now 2017-Nov-18 01:16 UTC.
Position N 36°59' W 008°13'.

Length 13 m.

Type: Fishing. MMSI: 263433000.

Date/timePositionNaut miles runAvg speedWind from/ knotsBaromVisibWave heightAir tempDewpointWater temp
2017-Nov-12 21:10N 36°59' W 008°13'0 2.5
2017-Nov-12 20:59N 36°59' W 008°13'1 2.5
2017-Nov-12 20:29N 36°59' W 008°15'2 5.1
2017-Nov-12 20:01N 36°58' W 008°18'4 8.6
2017-Nov-12 19:31N 36°59' W 008°23'4 8.8
2017-Nov-12 19:00N 36°59' W 008°29'4 7.8
2017-Nov-12 18:30N 36°59' W 008°33'5 8.9
2017-Nov-12 18:00N 36°58' W 008°39'4 0.3
2017-Nov-12 04:52N 36°58' W 008°45'3 1.6
2017-Nov-12 03:13N 36°57' W 008°48'1 2.6
2017-Nov-12 02:59N 36°56' W 008°48'3 1.3
2017-Nov-12 00:20N 36°58' W 008°44'2 1.8
2017-Nov-11 22:58N 36°58' W 008°47'1 2.4
2017-Nov-11 22:29N 36°57' W 008°48'2 2.6
2017-Nov-11 21:54N 36°56' W 008°50'1 2.4
2017-Nov-11 21:29N 36°55' W 008°49'1 2.5
2017-Nov-11 21:00N 36°56' W 008°48'2 2.4
2017-Nov-11 20:20N 36°57' W 008°46'1 2.7
2017-Nov-11 19:57N 36°57' W 008°45'0 0.3
2017-Nov-11 19:28N 36°57' W 008°45'1 0.3
2017-Nov-11 15:17N 36°58' W 008°45'1 3.4
2017-Nov-11 15:00N 36°58' W 008°44'1 0.1
2017-Nov-11 10:37N 36°58' W 008°43'1 8.8
2017-Nov-11 10:30N 36°58' W 008°42'4 8.7
2017-Nov-11 10:00N 36°58' W 008°37'4 8.6
2017-Nov-11 09:30N 36°58' W 008°31'4 8.6
2017-Nov-11 09:00N 36°57' W 008°26'6 8.4
2017-Nov-11 08:16N 36°57' W 008°18'3 8.3
2017-Nov-11 07:57N 36°56' W 008°15'  
2017-Nov-08 19:23N 36°59' W 008°12'1 2.5
2017-Nov-08 18:57N 36°59' W 008°13'1 2.5
2017-Nov-08 18:30N 36°59' W 008°15'1 2.0
2017-Nov-08 18:00N 36°59' W 008°16'1 1.5
2017-Nov-08 17:30N 36°59' W 008°15'1 2.5
2017-Nov-08 17:00N 36°59' W 008°13'1 2.5
2017-Nov-08 16:30N 36°59' W 008°12'1 2.3
2017-Nov-08 15:56N 36°58' W 008°11'2 0.3
2017-Nov-08 07:45N 36°59' W 008°13'1 2.4
2017-Nov-08 07:30N 36°59' W 008°13'1 2.4
2017-Nov-08 06:53N 36°59' W 008°11'1 0.2
2017-Nov-08 00:19N 36°59' W 008°12'1 2.5
2017-Nov-07 23:59N 36°59' W 008°13'1 2.5
2017-Nov-07 23:30N 36°59' W 008°14'1 1.6
2017-Nov-07 23:00N 36°58' W 008°15'1 2.3
2017-Nov-07 22:30N 36°59' W 008°14'1 2.5
2017-Nov-07 22:00N 36°59' W 008°13'1 2.3
2017-Nov-07 21:21N 36°59' W 008°11'1 0.1
2017-Nov-07 08:41N 36°58' W 008°10'2 0.3
2017-Nov-07 02:25N 36°59' W 008°12'1 2.5
2017-Nov-07 01:50N 36°59' W 008°14'1 2.5
2017-Nov-07 01:30N 36°59' W 008°15'1 1.3
2017-Nov-07 01:00N 36°58' W 008°16'1 2.6
2017-Nov-07 00:30N 36°59' W 008°14'1 2.6
2017-Nov-07 00:00N 36°59' W 008°13'1 2.5
2017-Nov-06 23:30N 36°58' W 008°11'  

Dump ship's entire track history